Capitol Logistics 7475

Operating for MZN



KSFO
San Francisco International Airport
San Francisco, California
KAFW
Fort Worth Alliance Airport
Fort Worth, Texas

Activity Log

Date Flight Route Aircraft Duration
No Flights Yet

Route Details

Aircraft Information
Primary: Boeing 767-300BDSF
Backup: Boeing 757-200SF
Route Data
Distance: 1445nm
Duration: 2h 48m
Recm'd Route: WESLA4 NTELL Q162 MYCAL BLD J92 DRK TXO J72 TURKI WESAT2
Origin Wx: KSFO 180056Z 29023KT 10SM FEW005 17/07 A3000 RMK AO2 PK WND 29029/0039 SLP159 T01670067
Dest. Wx: KAFW 180053Z 35007KT 10SM BKN160 OVC250 13/04 A3009 RMK AO2 SLP190 T01330044 $
Notes: